createdAt,value
2022-07-30T00:00:31.197Z,51.90
2022-07-30T00:02:59.446Z,52.27
2022-07-30T00:05:28.983Z,52.50
2022-07-30T00:07:56.848Z,52.58
2022-07-30T00:10:25.121Z,53.33
2022-07-30T00:12:53.031Z,52.66
2022-07-30T00:15:21.312Z,52.51
2022-07-30T00:17:49.512Z,53.90
2022-07-30T00:20:18.489Z,53.09
2022-07-30T00:22:47.980Z,53.52
2022-07-30T00:25:16.382Z,54.63
2022-07-30T00:27:45.375Z,53.94
2022-07-30T00:30:13.932Z,53.89
2022-07-30T00:32:43.241Z,54.19
2022-07-30T00:35:11.813Z,55.42
2022-07-30T00:37:39.939Z,53.80
2022-07-30T00:40:10.794Z,54.84
2022-07-30T00:42:40.956Z,54.97
2022-07-30T00:45:10.602Z,55.05
2022-07-30T00:47:39.821Z,54.25
2022-07-30T00:50:10.179Z,54.74
2022-07-30T00:52:39.208Z,54.73
2022-07-30T00:55:10.765Z,54.97
2022-07-30T00:57:39.286Z,56.39
2022-07-30T01:00:10.330Z,56.01
2022-07-30T01:02:38.816Z,56.74
2022-07-30T01:05:08.301Z,56.51
2022-07-30T01:07:36.596Z,56.22
2022-07-30T01:10:05.919Z,56.26
2022-07-30T01:12:35.332Z,57.13
2022-07-30T01:15:06.100Z,56.14
2022-07-30T01:17:35.228Z,57.41
2022-07-30T01:20:06.219Z,56.55
2022-07-30T01:22:46.528Z,56.83
2022-07-30T01:25:22.793Z,61.77
2022-07-30T01:27:57.714Z,60.18
2022-07-30T01:30:28.794Z,60.70
2022-07-30T01:32:59.539Z,58.98
2022-07-30T01:35:29.734Z,58.51
2022-07-30T01:38:00.881Z,61.03
2022-07-30T01:40:30.424Z,59.91
2022-07-30T01:43:02.398Z,58.84
2022-07-30T01:45:33.783Z,59.66
2022-07-30T01:48:12.056Z,57.81
2022-07-30T01:50:45.021Z,57.47
2022-07-30T01:53:17.717Z,61.16
2022-07-30T01:55:46.882Z,58.60
2022-07-30T01:58:20.083Z,57.56
2022-07-30T02:00:50.626Z,57.48
2022-07-30T02:03:18.987Z,56.79
2022-07-30T02:05:54.943Z,57.55
2022-07-30T02:08:29.806Z,58.37
2022-07-30T02:11:04.319Z,58.90
2022-07-30T02:13:40.927Z,60.86
2022-07-30T02:16:14.701Z,59.53
2022-07-30T02:18:52.016Z,59.48
2022-07-30T02:21:22.006Z,59.89
2022-07-30T02:23:51.882Z,58.94
2022-07-30T02:26:25.360Z,58.71
2022-07-30T02:28:59.020Z,60.11
2022-07-30T02:31:29.432Z,60.04
2022-07-30T02:34:00.363Z,59.70
2022-07-30T02:36:29.720Z,58.99
2022-07-30T02:38:59.250Z,59.31
2022-07-30T02:41:30.488Z,59.92
2022-07-30T02:44:01.808Z,61.60
2022-07-30T02:46:31.494Z,60.49
2022-07-30T02:49:03.096Z,60.04
2022-07-30T02:51:32.561Z,61.48
2022-07-30T02:54:03.958Z,62.60
2022-07-30T02:56:32.805Z,62.09
2022-07-30T02:59:04.054Z,61.91
2022-07-30T03:01:33.954Z,61.65
2022-07-30T03:04:03.746Z,61.77
2022-07-30T03:06:32.976Z,63.63
2022-07-30T03:09:03.265Z,64.44
2022-07-30T03:11:32.773Z,62.33
2022-07-30T03:14:03.918Z,62.88
2022-07-30T03:16:35.230Z,64.93
2022-07-30T03:19:07.647Z,62.54
2022-07-30T03:21:37.758Z,64.52
2022-07-30T03:24:08.359Z,63.26
2022-07-30T03:26:38.242Z,63.59
2022-07-30T03:29:08.470Z,61.97
2022-07-30T03:31:40.624Z,64.17
2022-07-30T03:34:09.912Z,64.69
2022-07-30T03:36:41.572Z,65.86
2022-07-30T03:39:10.318Z,64.46
2022-07-30T03:41:40.030Z,64.72
2022-07-30T03:44:10.380Z,63.08
2022-07-30T03:46:39.178Z,62.62
2022-07-30T03:49:07.422Z,63.26
2022-07-30T03:51:37.817Z,63.44
2022-07-30T03:54:13.179Z,64.43
2022-07-30T03:56:43.789Z,63.90
2022-07-30T03:59:14.971Z,63.76
2022-07-30T04:01:43.365Z,63.92
2022-07-30T04:04:12.373Z,62.92
2022-07-30T04:06:42.890Z,63.71
2022-07-30T04:09:12.805Z,63.89
2022-07-30T04:11:42.071Z,64.55
2022-07-30T04:14:10.864Z,63.63
2022-07-30T04:16:45.868Z,63.19
2022-07-30T04:19:20.719Z,63.45
2022-07-30T04:21:50.262Z,62.73
2022-07-30T04:24:19.839Z,62.36
2022-07-30T04:26:48.946Z,62.38
2022-07-30T04:29:21.415Z,62.48
2022-07-30T04:31:54.764Z,62.96
2022-07-30T04:34:24.364Z,63.23
2022-07-30T04:36:52.565Z,62.36
2022-07-30T04:39:20.866Z,63.79
2022-07-30T04:41:50.152Z,63.03
2022-07-30T04:44:21.737Z,63.93
2022-07-30T04:46:50.895Z,63.49
2022-07-30T04:49:22.492Z,65.27
2022-07-30T04:51:52.464Z,66.32
2022-07-30T04:54:22.458Z,64.79
2022-07-30T04:56:54.279Z,63.27
2022-07-30T04:59:26.401Z,64.34
2022-07-30T05:01:58.315Z,64.03
2022-07-30T05:04:30.217Z,65.78
2022-07-30T05:06:59.346Z,65.27
2022-07-30T05:09:28.625Z,64.52
2022-07-30T05:11:57.939Z,63.90
2022-07-30T05:14:27.144Z,63.84
2022-07-30T05:16:56.140Z,63.37
2022-07-30T05:19:25.161Z,64.21
2022-07-30T05:21:54.685Z,63.84
2022-07-30T05:24:22.960Z,63.69
2022-07-30T05:26:51.111Z,64.33
2022-07-30T05:29:20.309Z,65.70
2022-07-30T05:31:49.713Z,65.37
2022-07-30T05:34:17.960Z,67.80
2022-07-30T05:36:46.695Z,66.41
2022-07-30T05:39:16.774Z,65.61
2022-07-30T05:41:45.279Z,64.86
2022-07-30T05:44:13.847Z,64.41
2022-07-30T05:46:42.737Z,64.54
2022-07-30T05:49:10.693Z,64.02
2022-07-30T05:51:39.395Z,65.72
2022-07-30T05:54:07.306Z,64.64
2022-07-30T05:56:37.939Z,64.98
2022-07-30T05:59:06.221Z,64.97
2022-07-30T06:01:34.902Z,64.79
2022-07-30T06:04:03.991Z,66.32
2022-07-30T06:06:32.784Z,65.31
2022-07-30T06:09:00.802Z,65.06
2022-07-30T06:11:29.899Z,65.13
2022-07-30T06:13:59.101Z,65.18
2022-07-30T06:16:27.045Z,64.35
2022-07-30T06:18:55.246Z,64.11
2022-07-30T06:21:23.723Z,64.02
2022-07-30T06:23:52.750Z,63.81
2022-07-30T06:26:21.566Z,63.79
2022-07-30T06:28:49.612Z,63.56
2022-07-30T06:31:19.489Z,63.11
2022-07-30T06:33:47.992Z,62.98
2022-07-30T06:36:15.886Z,63.12
2022-07-30T06:38:45.385Z,62.63
2022-07-30T06:41:15.660Z,62.53
2022-07-30T06:43:44.882Z,62.33
2022-07-30T06:46:14.520Z,62.00
2022-07-30T06:48:43.916Z,62.17
2022-07-30T06:51:12.359Z,61.93
2022-07-30T06:53:42.535Z,61.75
2022-07-30T06:56:15.829Z,61.55
2022-07-30T06:58:44.548Z,61.54
2022-07-30T07:01:15.846Z,61.71
2022-07-30T07:03:45.312Z,61.54
2022-07-30T07:06:13.518Z,61.45
2022-07-30T07:08:42.998Z,61.96
2022-07-30T07:11:11.790Z,62.11
2022-07-30T07:13:41.698Z,61.84
2022-07-30T07:16:10.701Z,61.64
2022-07-30T07:18:39.999Z,61.30
2022-07-30T07:21:09.882Z,61.08
2022-07-30T07:23:42.316Z,61.09
2022-07-30T07:26:14.460Z,61.58
2022-07-30T07:28:42.443Z,61.41
2022-07-30T07:31:11.394Z,61.95
2022-07-30T07:34:00.387Z,62.16
2022-07-30T07:36:29.691Z,62.10
2022-07-30T07:38:57.685Z,62.35
2022-07-30T07:41:26.373Z,62.26
2022-07-30T07:43:54.235Z,62.22
2022-07-30T07:46:33.750Z,62.05
2022-07-30T07:49:02.862Z,62.14
2022-07-30T07:51:34.749Z,62.24
2022-07-30T07:54:22.824Z,62.31
2022-07-30T07:56:52.879Z,61.96
2022-07-30T07:59:23.445Z,61.79
2022-07-30T08:01:56.005Z,62.13
2022-07-30T08:04:26.439Z,61.74
2022-07-30T08:06:58.287Z,62.66
2022-07-30T08:09:43.583Z,62.14
2022-07-30T08:12:13.283Z,62.59
2022-07-30T08:14:43.396Z,62.19
2022-07-30T08:17:14.495Z,62.07
2022-07-30T08:19:44.332Z,62.28
2022-07-30T08:22:13.976Z,62.32
2022-07-30T08:24:42.064Z,63.69
2022-07-30T08:27:10.339Z,62.30
2022-07-30T08:29:38.332Z,62.72
2022-07-30T08:32:06.913Z,62.62
2022-07-30T08:34:36.306Z,62.77
2022-07-30T08:37:04.477Z,63.11
2022-07-30T08:39:33.658Z,62.87
2022-07-30T08:42:05.124Z,62.14
2022-07-30T08:44:36.254Z,62.26
2022-07-30T08:47:08.049Z,62.83
2022-07-30T08:49:40.661Z,63.12
2022-07-30T08:52:09.647Z,62.33
2022-07-30T08:54:40.182Z,62.21
2022-07-30T08:57:08.961Z,62.81
2022-07-30T08:59:59.295Z,62.51
2022-07-30T09:02:29.414Z,63.55
2022-07-30T09:04:57.816Z,63.23
2022-07-30T09:07:26.371Z,62.95
2022-07-30T09:09:57.476Z,63.24
2022-07-30T09:12:41.425Z,65.57
2022-07-30T09:15:14.149Z,66.08
2022-07-30T09:17:51.375Z,63.71
2022-07-30T09:20:20.922Z,65.28
2022-07-30T09:22:50.681Z,62.99
2022-07-30T09:25:39.147Z,62.68
2022-07-30T09:28:16.173Z,64.87
2022-07-30T09:30:53.655Z,62.92
2022-07-30T09:33:36.440Z,62.87
2022-07-30T09:36:08.911Z,64.11
2022-07-30T09:38:50.473Z,62.81
2022-07-30T09:41:39.262Z,62.81
2022-07-30T09:44:08.255Z,64.99
2022-07-30T09:46:45.414Z,63.00
2022-07-30T09:49:16.255Z,63.64
2022-07-30T09:51:54.559Z,62.14
2022-07-30T09:54:26.476Z,62.36
2022-07-30T09:57:23.161Z,62.61
2022-07-30T09:59:55.459Z,63.94
2022-07-30T10:02:32.310Z,63.80
2022-07-30T10:05:14.940Z,64.42
2022-07-30T10:07:52.144Z,63.10
2022-07-30T10:10:25.364Z,63.65
2022-07-30T10:12:59.211Z,62.50
2022-07-30T10:15:30.742Z,64.54
2022-07-30T10:18:01.523Z,63.61
2022-07-30T10:20:32.126Z,62.62
2022-07-30T10:23:08.787Z,63.36
2022-07-30T10:25:49.454Z,62.22
2022-07-30T10:28:25.966Z,62.44
2022-07-30T10:30:56.294Z,62.69
2022-07-30T10:33:34.972Z,62.06
2022-07-30T10:36:06.049Z,61.93
2022-07-30T10:38:43.026Z,61.72
2022-07-30T10:41:44.232Z,62.29
2022-07-30T10:44:29.025Z,62.64
2022-07-30T10:47:07.043Z,62.60
2022-07-30T10:49:40.912Z,62.77
2022-07-30T10:52:10.347Z,61.70
2022-07-30T10:54:44.534Z,61.92
2022-07-30T10:57:32.326Z,62.90
2022-07-30T11:00:17.730Z,62.02
2022-07-30T11:03:40.552Z,63.18
2022-07-30T11:06:29.267Z,62.79
2022-07-30T11:08:58.248Z,62.04
2022-07-30T11:12:04.806Z,60.89
2022-07-30T11:15:06.864Z,61.60
2022-07-30T11:18:12.351Z,61.90
2022-07-30T11:20:43.267Z,61.08
2022-07-30T11:23:40.331Z,60.36
2022-07-30T11:26:13.936Z,61.53
2022-07-30T11:28:45.403Z,60.42
2022-07-30T11:31:49.865Z,60.40
2022-07-30T11:34:30.985Z,60.85
2022-07-30T11:37:22.357Z,60.56
2022-07-30T11:40:13.960Z,60.74
2022-07-30T11:42:43.546Z,60.04
2022-07-30T11:45:26.800Z,59.44
2022-07-30T11:47:58.097Z,59.61
2022-07-30T11:50:29.655Z,58.90
2022-07-30T11:52:59.983Z,58.59
2022-07-30T11:55:30.319Z,58.44
2022-07-30T11:57:59.742Z,58.48
2022-07-30T12:00:35.567Z,58.43
2022-07-30T12:03:09.706Z,58.17
2022-07-30T12:05:39.698Z,58.01
2022-07-30T12:08:08.455Z,58.14
2022-07-30T12:10:45.295Z,57.90
2022-07-30T12:13:16.027Z,58.01
2022-07-30T12:15:46.521Z,58.23
2022-07-30T12:18:26.417Z,58.01
2022-07-30T12:20:59.516Z,57.91
2022-07-30T12:23:28.611Z,57.85
2022-07-30T12:25:56.959Z,57.98
2022-07-30T12:28:28.091Z,57.83
2022-07-30T12:30:57.432Z,58.04
2022-07-30T12:33:26.130Z,58.00
2022-07-30T12:35:56.662Z,57.64
2022-07-30T12:38:26.253Z,57.46
2022-07-30T12:40:56.400Z,57.41
2022-07-30T12:43:47.600Z,57.33
2022-07-30T12:46:18.842Z,57.87
2022-07-30T12:48:55.239Z,57.04
2022-07-30T12:51:26.759Z,57.09
2022-07-30T12:53:56.388Z,56.74
2022-07-30T12:56:26.153Z,56.57
2022-07-30T12:58:55.789Z,56.69
2022-07-30T13:01:41.921Z,56.28
2022-07-30T13:04:10.974Z,56.61
2022-07-30T13:06:42.028Z,56.28
2022-07-30T13:09:20.124Z,56.62
2022-07-30T13:11:50.004Z,56.87
2022-07-30T13:14:18.316Z,56.60
2022-07-30T13:16:46.590Z,56.75
2022-07-30T13:19:14.510Z,57.04
2022-07-30T13:21:49.898Z,57.06
2022-07-30T13:24:18.500Z,56.87
2022-07-30T13:26:48.023Z,57.02
2022-07-30T13:29:19.030Z,56.94
2022-07-30T13:31:47.234Z,56.81
2022-07-30T13:34:15.094Z,57.03
2022-07-30T13:36:44.760Z,56.79
2022-07-30T13:39:13.176Z,56.32
2022-07-30T13:41:42.831Z,56.50
2022-07-30T13:44:10.798Z,56.74
2022-07-30T13:46:41.174Z,56.39
2022-07-30T13:49:10.777Z,56.14
2022-07-30T13:51:39.130Z,56.23
2022-07-30T13:54:08.367Z,55.93
2022-07-30T13:56:40.804Z,55.90
2022-07-30T13:59:09.301Z,55.76
2022-07-30T14:01:38.107Z,55.86
2022-07-30T14:04:06.801Z,55.76
2022-07-30T14:06:34.629Z,55.80
2022-07-30T14:09:02.544Z,55.36
2022-07-30T14:11:32.568Z,54.90
2022-07-30T14:14:00.506Z,54.87
2022-07-30T14:16:44.842Z,54.69
2022-07-30T14:19:22.721Z,54.50
2022-07-30T14:21:53.618Z,54.36
2022-07-30T14:24:22.207Z,54.35
2022-07-30T14:26:55.863Z,54.24
2022-07-30T14:29:27.067Z,54.02
2022-07-30T14:31:55.137Z,53.96
2022-07-30T14:34:22.995Z,53.77
2022-07-30T14:36:51.175Z,53.83
2022-07-30T14:39:19.084Z,53.73
2022-07-30T14:41:46.924Z,53.89
2022-07-30T14:44:16.635Z,53.77
2022-07-30T14:46:52.085Z,53.52
2022-07-30T14:49:21.281Z,53.27
2022-07-30T14:51:49.178Z,52.99
2022-07-30T14:54:17.133Z,52.88
2022-07-30T14:56:45.203Z,52.98
2022-07-30T14:59:13.207Z,52.83
2022-07-30T15:01:43.780Z,52.45
2022-07-30T15:04:12.495Z,51.25
2022-07-30T15:06:41.796Z,51.73
2022-07-30T15:09:10.406Z,51.50
2022-07-30T15:12:08.012Z,51.51
2022-07-30T15:14:28.402Z,51.51
2022-07-30T15:17:03.905Z,51.38
2022-07-30T15:19:32.372Z,51.22
2022-07-30T15:22:02.698Z,51.54
2022-07-30T15:24:32.162Z,52.00
2022-07-30T15:27:00.504Z,52.05
2022-07-30T15:29:30.134Z,51.81
2022-07-30T15:32:01.860Z,51.54
2022-07-30T15:34:34.413Z,50.68
2022-07-30T15:37:03.339Z,51.44
2022-07-30T15:39:32.988Z,51.30
2022-07-30T15:42:01.991Z,51.00
2022-07-30T15:44:31.978Z,49.54
2022-07-30T15:47:02.205Z,48.10
2022-07-30T15:49:30.438Z,47.53
2022-07-30T15:51:59.994Z,47.79
2022-07-30T15:54:28.795Z,46.59
2022-07-30T15:57:01.216Z,45.77
2022-07-30T15:59:30.259Z,45.30
2022-07-30T16:01:58.855Z,46.50
2022-07-30T16:04:31.986Z,47.37
2022-07-30T16:07:01.037Z,47.55
2022-07-30T16:09:29.187Z,47.33
2022-07-30T16:11:57.195Z,48.21
2022-07-30T16:14:27.126Z,48.61
2022-07-30T16:16:55.398Z,48.85
2022-07-30T16:19:23.467Z,48.89
2022-07-30T16:21:53.077Z,49.05
2022-07-30T16:24:21.239Z,48.83
2022-07-30T16:26:50.541Z,48.97
2022-07-30T16:29:18.840Z,49.05
2022-07-30T16:31:47.227Z,49.31
2022-07-30T16:34:15.317Z,49.40
2022-07-30T16:36:43.282Z,49.60
2022-07-30T16:39:12.800Z,48.94
2022-07-30T16:41:40.989Z,48.47
2022-07-30T16:44:09.390Z,48.15
2022-07-30T16:46:38.676Z,48.21
2022-07-30T16:49:07.181Z,48.22
2022-07-30T16:51:35.232Z,48.44
2022-07-30T16:54:03.747Z,48.72
2022-07-30T16:56:33.032Z,48.39
2022-07-30T16:59:00.912Z,48.60
2022-07-30T17:01:29.668Z,48.60
2022-07-30T17:03:58.780Z,48.60
2022-07-30T17:06:27.034Z,48.20
2022-07-30T17:08:55.543Z,47.79
2022-07-30T17:11:47.669Z,47.59
2022-07-30T17:14:14.016Z,47.58
2022-07-30T17:16:42.293Z,46.42
2022-07-30T17:19:10.181Z,45.92
2022-07-30T17:21:38.976Z,44.85
2022-07-30T17:24:11.323Z,43.34
2022-07-30T17:26:42.840Z,43.24
2022-07-30T17:29:14.283Z,42.45
2022-07-30T17:31:45.258Z,42.62
2022-07-30T17:34:18.144Z,41.92
2022-07-30T17:36:51.766Z,40.96
2022-07-30T17:40:18.965Z,41.09
2022-07-30T17:42:10.455Z,41.27
2022-07-30T17:44:39.342Z,41.38
2022-07-30T17:47:14.005Z,40.80
2022-07-30T17:49:43.024Z,40.87
2022-07-30T17:52:11.154Z,40.92
2022-07-30T17:54:39.219Z,40.96
2022-07-30T17:57:07.427Z,40.74
2022-07-30T17:59:35.575Z,40.32
2022-07-30T18:02:04.703Z,40.87
2022-07-30T18:04:35.094Z,41.25
2022-07-30T18:07:03.522Z,41.80
2022-07-30T18:09:39.104Z,42.58
2022-07-30T18:12:08.896Z,42.93
2022-07-30T18:14:37.279Z,43.38
2022-07-30T18:17:07.457Z,44.09
2022-07-30T18:19:39.549Z,44.47
2022-07-30T18:22:08.977Z,44.90
2022-07-30T18:24:39.990Z,45.28
2022-07-30T18:27:08.785Z,45.46
2022-07-30T18:29:36.663Z,45.57
2022-07-30T18:32:05.261Z,45.77
2022-07-30T18:34:33.840Z,46.19
2022-07-30T18:37:03.038Z,46.50
2022-07-30T18:39:30.906Z,46.66
2022-07-30T18:41:59.168Z,46.86
2022-07-30T18:44:27.060Z,47.22
2022-07-30T18:46:54.949Z,47.77
2022-07-30T18:49:36.130Z,47.99
2022-07-30T18:52:08.045Z,48.09
2022-07-30T18:54:36.869Z,48.51
2022-07-30T18:57:05.897Z,48.76
2022-07-30T18:59:33.840Z,48.62
2022-07-30T19:02:04.610Z,48.79
2022-07-30T19:04:32.976Z,49.04
2022-07-30T19:07:01.338Z,49.12
2022-07-30T19:09:30.539Z,49.38
2022-07-30T19:11:58.424Z,49.57
2022-07-30T19:14:26.599Z,49.75
2022-07-30T19:16:54.479Z,49.84
2022-07-30T19:19:27.796Z,50.10
2022-07-30T19:21:55.776Z,50.27
2022-07-30T19:24:23.737Z,50.39
2022-07-30T19:26:57.422Z,50.54
2022-07-30T19:29:25.396Z,51.07
2022-07-30T19:31:53.288Z,50.88
2022-07-30T19:34:21.663Z,51.27
2022-07-30T19:36:49.595Z,51.24
2022-07-30T19:39:21.272Z,51.27
2022-07-30T19:42:02.450Z,51.42
2022-07-30T19:44:36.772Z,51.60
2022-07-30T19:47:07.210Z,52.00
2022-07-30T19:49:40.428Z,52.07
2022-07-30T19:52:22.830Z,52.80
2022-07-30T19:54:51.799Z,52.59
2022-07-30T19:57:20.611Z,52.88
2022-07-30T20:00:00.249Z,53.08
2022-07-30T20:02:40.319Z,53.24
2022-07-30T20:05:11.698Z,53.36
2022-07-30T20:07:44.631Z,53.36
2022-07-30T20:10:13.125Z,53.71
2022-07-30T20:12:49.397Z,53.11
2022-07-30T20:15:19.737Z,53.43
2022-07-30T20:17:47.651Z,53.90
2022-07-30T20:20:15.786Z,53.43
2022-07-30T20:22:44.210Z,53.42
2022-07-30T20:25:13.386Z,53.39
2022-07-30T20:27:42.205Z,53.14
2022-07-30T20:30:12.725Z,53.31
2022-07-30T20:32:46.482Z,53.47
2022-07-30T20:35:15.266Z,53.61
2022-07-30T20:37:55.356Z,53.76
2022-07-30T20:40:26.680Z,53.47
2022-07-30T20:42:55.398Z,53.74
2022-07-30T20:45:24.649Z,53.60
2022-07-30T20:47:56.463Z,54.09
2022-07-30T20:50:30.207Z,54.24
2022-07-30T20:52:59.677Z,53.98
2022-07-30T20:55:28.022Z,53.90
2022-07-30T20:58:07.971Z,54.57
2022-07-30T21:00:49.286Z,54.49
2022-07-30T21:03:21.489Z,54.58
2022-07-30T21:05:51.298Z,54.63
2022-07-30T21:08:21.261Z,54.68
2022-07-30T21:10:55.120Z,54.64
2022-07-30T21:13:24.880Z,54.96
2022-07-30T21:16:03.087Z,54.84
2022-07-30T21:18:33.120Z,54.99
2022-07-30T21:21:04.985Z,55.80
2022-07-30T21:23:33.997Z,55.32
2022-07-30T21:26:05.839Z,55.06
2022-07-30T21:28:49.992Z,55.49
2022-07-30T21:31:18.170Z,55.88
2022-07-30T21:33:47.547Z,56.20
2022-07-30T21:36:15.746Z,55.73
2022-07-30T21:38:43.927Z,55.64
2022-07-30T21:41:14.137Z,55.99
2022-07-30T21:43:44.409Z,55.94
2022-07-30T21:46:12.884Z,56.04
2022-07-30T21:48:43.261Z,56.37
2022-07-30T21:51:13.626Z,55.93
2022-07-30T21:53:45.319Z,56.36
2022-07-30T21:56:15.922Z,56.36
2022-07-30T21:58:45.028Z,56.34
2022-07-30T22:01:17.023Z,56.79
2022-07-30T22:04:01.461Z,56.60
2022-07-30T22:06:34.495Z,57.16
2022-07-30T22:09:09.897Z,56.96
2022-07-30T22:11:47.665Z,56.92
2022-07-30T22:14:15.871Z,57.63
2022-07-30T22:19:31.992Z,58.40
2022-07-30T22:22:05.102Z,58.43
2022-07-30T22:24:49.412Z,59.58
2022-07-30T22:27:17.338Z,59.68
2022-07-30T22:29:50.253Z,59.75
2022-07-30T22:32:23.107Z,59.39
2022-07-30T22:34:51.776Z,60.00
2022-07-30T22:37:22.283Z,59.42
2022-07-30T22:39:52.352Z,59.52
2022-07-30T22:42:24.332Z,59.52
2022-07-30T22:44:53.155Z,59.19
2022-07-30T22:50:11.597Z,58.42
2022-07-30T22:52:44.279Z,58.02
2022-07-30T22:55:23.733Z,58.07
2022-07-30T22:57:52.624Z,58.21
2022-07-30T23:00:27.715Z,58.26
2022-07-30T23:02:57.687Z,58.01
2022-07-30T23:05:26.307Z,58.09
2022-07-30T23:07:56.300Z,57.97
2022-07-30T23:10:25.409Z,58.59
2022-07-30T23:12:32.423Z,58.35
2022-07-30T23:12:33.917Z,58.47
2022-07-30T23:12:56.055Z,58.36
2022-07-30T23:15:24.573Z,58.29
2022-07-30T23:17:53.109Z,58.39
2022-07-30T23:20:21.760Z,58.22
2022-07-30T23:22:50.524Z,58.47
2022-07-30T23:25:19.913Z,58.06
2022-07-30T23:27:47.871Z,58.08
2022-07-30T23:30:16.114Z,58.74
2022-07-30T23:32:44.188Z,58.46
2022-07-30T23:35:12.228Z,59.11
2022-07-30T23:37:47.633Z,58.62
2022-07-30T23:40:17.174Z,58.57
2022-07-30T23:42:47.271Z,59.03
2022-07-30T23:45:15.249Z,58.99
2022-07-30T23:48:00.501Z,59.58
2022-07-30T23:50:31.291Z,59.13
2022-07-30T23:52:59.481Z,58.98
2022-07-30T23:55:27.955Z,58.76
2022-07-30T23:57:57.937Z,59.24
